createdAt,value
2017-08-06T00:02:15.246Z,24.27
2017-08-06T00:04:42.655Z,24.10
2017-08-06T00:07:10.051Z,24.17
2017-08-06T00:09:37.480Z,25.60
2017-08-06T00:12:04.875Z,25.30
2017-08-06T00:14:32.275Z,25.47
2017-08-06T00:16:59.674Z,23.13
2017-08-06T00:19:27.080Z,24.50
2017-08-06T00:21:54.486Z,25.53
2017-08-06T00:24:22.079Z,24.57
2017-08-06T00:26:49.479Z,23.90
2017-08-06T00:29:16.893Z,25.43
2017-08-06T00:31:44.296Z,23.83
2017-08-06T00:34:11.703Z,25.07
2017-08-06T00:36:39.105Z,23.40
2017-08-06T00:39:06.507Z,24.63
2017-08-06T00:41:33.916Z,24.07
2017-08-06T00:44:01.312Z,25.80
2017-08-06T00:46:28.714Z,25.17
2017-08-06T00:48:56.118Z,24.17
2017-08-06T00:51:23.517Z,25.03
2017-08-06T00:53:50.932Z,25.47
2017-08-06T00:56:18.331Z,24.80
2017-08-06T00:58:45.794Z,23.77
2017-08-06T01:01:13.188Z,26.07
2017-08-06T01:03:40.587Z,25.80
2017-08-06T01:06:07.990Z,26.20
2017-08-06T01:08:35.396Z,26.60
2017-08-06T01:11:02.802Z,26.50
2017-08-06T01:13:30.212Z,25.23
2017-08-06T01:15:57.611Z,26.80
2017-08-06T01:18:25.007Z,25.93
2017-08-06T01:20:52.411Z,24.83
2017-08-06T01:23:19.835Z,25.67
2017-08-06T01:25:47.231Z,25.70
2017-08-06T01:28:14.643Z,23.90
2017-08-06T01:30:42.043Z,24.40
2017-08-06T01:33:09.447Z,25.83
2017-08-06T01:35:36.867Z,25.13
2017-08-06T01:38:04.267Z,25.23
2017-08-06T01:40:31.664Z,25.27
2017-08-06T01:42:59.075Z,26.87
2017-08-06T01:45:26.480Z,29.40
2017-08-06T01:47:53.887Z,26.23
2017-08-06T01:50:21.283Z,27.10
2017-08-06T01:52:48.684Z,26.83
2017-08-06T01:55:16.083Z,28.03
2017-08-06T01:57:43.479Z,26.73
2017-08-06T02:00:10.895Z,28.20
2017-08-06T02:02:38.307Z,27.00
2017-08-06T02:05:05.720Z,28.63
2017-08-06T02:07:33.135Z,26.40
2017-08-06T02:10:00.534Z,26.57
2017-08-06T02:12:27.947Z,26.13
2017-08-06T02:14:55.347Z,26.83
2017-08-06T02:17:22.743Z,26.80
2017-08-06T02:19:50.146Z,26.57
2017-08-06T02:22:17.547Z,27.40
2017-08-06T02:24:44.967Z,26.93
2017-08-06T02:27:12.371Z,27.40
2017-08-06T02:29:39.776Z,27.83
2017-08-06T02:32:07.190Z,28.10
2017-08-06T02:34:34.595Z,27.00
2017-08-06T02:37:02.144Z,25.80
2017-08-06T02:39:29.558Z,26.33
2017-08-06T02:41:56.963Z,26.17
2017-08-06T02:44:24.371Z,26.70
2017-08-06T02:46:51.772Z,25.87
2017-08-06T02:49:19.179Z,25.23
2017-08-06T02:51:46.575Z,23.73
2017-08-06T02:54:13.979Z,25.03
2017-08-06T02:56:41.387Z,25.23
2017-08-06T02:59:08.779Z,26.97
2017-08-06T03:01:36.219Z,25.60
2017-08-06T03:04:03.615Z,27.47
2017-08-06T03:06:31.011Z,25.93
2017-08-06T03:08:58.415Z,32.03
2017-08-06T03:11:25.820Z,26.57
2017-08-06T03:13:53.227Z,26.90
2017-08-06T03:16:20.627Z,25.70
2017-08-06T03:18:48.027Z,26.53
2017-08-06T03:21:15.436Z,29.97
2017-08-06T03:23:42.832Z,28.70
2017-08-06T03:26:10.247Z,31.70
2017-08-06T03:28:37.643Z,29.53
2017-08-06T03:31:05.044Z,29.13
2017-08-06T03:33:32.447Z,29.20
2017-08-06T03:35:59.847Z,29.13
2017-08-06T03:38:27.264Z,31.47
2017-08-06T03:40:54.655Z,30.30
2017-08-06T03:43:22.060Z,31.07
2017-08-06T03:45:49.476Z,31.23
2017-08-06T03:48:16.870Z,32.80
2017-08-06T03:50:44.268Z,30.93
2017-08-06T03:53:11.674Z,30.93
2017-08-06T03:55:39.082Z,27.37
2017-08-06T03:58:06.480Z,29.73
2017-08-06T04:00:33.895Z,30.60
2017-08-06T04:03:01.301Z,30.20
2017-08-06T04:05:29.324Z,28.03
2017-08-06T04:07:56.715Z,31.30
2017-08-06T04:10:24.113Z,31.13
2017-08-06T04:12:51.519Z,29.50
2017-08-06T04:15:18.925Z,28.90
2017-08-06T04:17:46.344Z,32.40
2017-08-06T04:20:13.735Z,26.77
2017-08-06T04:22:41.168Z,32.30
2017-08-06T04:25:08.603Z,31.43
2017-08-06T04:27:36.003Z,29.87
2017-08-06T04:30:03.419Z,30.83
2017-08-06T04:32:30.831Z,31.97
2017-08-06T04:34:58.227Z,30.83
2017-08-06T04:37:25.643Z,32.10
2017-08-06T04:39:53.044Z,31.73
2017-08-06T04:42:20.456Z,31.07
2017-08-06T04:44:47.860Z,31.10
2017-08-06T04:47:15.265Z,28.80
2017-08-06T04:49:42.671Z,27.03
2017-08-06T04:52:10.077Z,28.53
2017-08-06T04:54:37.496Z,26.60
2017-08-06T04:57:04.887Z,29.83
2017-08-06T04:59:32.287Z,25.60
2017-08-06T05:01:59.691Z,30.87
2017-08-06T05:04:27.106Z,28.23
2017-08-06T05:06:54.520Z,32.63
2017-08-06T05:09:21.923Z,31.47
2017-08-06T05:11:49.318Z,27.93
2017-08-06T05:14:16.727Z,28.43
2017-08-06T05:16:44.127Z,28.50
2017-08-06T05:19:11.535Z,30.33
2017-08-06T05:21:38.937Z,29.60
2017-08-06T05:24:06.340Z,31.97
2017-08-06T05:26:33.745Z,31.00
2017-08-06T05:29:01.139Z,30.17
2017-08-06T05:31:28.551Z,29.33
2017-08-06T05:33:55.951Z,30.77
2017-08-06T05:36:23.351Z,30.07
2017-08-06T05:38:50.759Z,32.13
2017-08-06T05:41:18.163Z,30.20
2017-08-06T05:43:45.575Z,29.60
2017-08-06T05:46:12.983Z,32.23
2017-08-06T05:48:40.374Z,32.90
2017-08-06T05:51:07.779Z,32.57
2017-08-06T05:53:35.177Z,34.77
2017-08-06T05:56:02.586Z,31.10
2017-08-06T05:58:29.988Z,27.03
2017-08-06T06:00:57.399Z,32.00
2017-08-06T06:03:24.815Z,31.83
2017-08-06T06:05:52.216Z,30.43
2017-08-06T06:08:19.628Z,30.50
2017-08-06T06:10:47.024Z,33.90
2017-08-06T06:13:14.433Z,30.67
2017-08-06T06:15:41.831Z,31.97
2017-08-06T06:18:09.250Z,32.13
2017-08-06T06:20:36.654Z,33.93
2017-08-06T06:23:04.059Z,34.03
2017-08-06T06:25:31.471Z,33.20
2017-08-06T06:27:58.859Z,35.70
2017-08-06T06:30:26.279Z,31.97
2017-08-06T06:32:53.954Z,35.17
2017-08-06T06:35:21.371Z,32.50
2017-08-06T06:37:48.791Z,27.87
2017-08-06T06:40:16.179Z,30.03
2017-08-06T06:42:43.627Z,28.63
2017-08-06T06:45:11.050Z,25.30
2017-08-06T06:47:38.450Z,30.70
2017-08-06T06:50:05.850Z,28.13
2017-08-06T06:52:33.287Z,28.90
2017-08-06T06:55:00.692Z,29.07
2017-08-06T06:57:28.143Z,27.87
2017-08-06T06:59:55.550Z,27.00
2017-08-06T07:02:23.019Z,29.10
2017-08-06T07:04:50.460Z,31.73
2017-08-06T07:07:17.855Z,28.87
2017-08-06T07:09:45.295Z,31.53
2017-08-06T07:12:12.752Z,32.60
2017-08-06T07:14:40.179Z,31.30
2017-08-06T07:17:07.676Z,30.77
2017-08-06T07:19:35.071Z,32.03
2017-08-06T07:22:02.476Z,30.43
2017-08-06T07:24:29.879Z,30.47
2017-08-06T07:26:57.300Z,30.30
2017-08-06T07:29:24.694Z,26.83
2017-08-06T07:31:52.104Z,26.87
2017-08-06T07:34:19.503Z,25.50
2017-08-06T07:36:46.903Z,25.73
2017-08-06T07:39:14.307Z,25.77
2017-08-06T07:41:41.751Z,25.50
2017-08-06T07:44:09.143Z,25.63
2017-08-06T07:46:36.546Z,24.60
2017-08-06T07:49:03.960Z,22.67
2017-08-06T07:51:31.364Z,21.23
2017-08-06T07:53:58.771Z,20.53
2017-08-06T07:56:26.168Z,20.47
2017-08-06T07:58:53.570Z,19.40
2017-08-06T08:01:20.975Z,15.67
2017-08-06T08:03:48.380Z,12.63
2017-08-06T08:06:15.803Z,15.83
2017-08-06T08:08:43.206Z,14.97
2017-08-06T08:11:10.603Z,14.07
2017-08-06T08:13:38.012Z,13.57
2017-08-06T08:16:05.424Z,12.90
2017-08-06T08:18:32.823Z,11.17
2017-08-06T08:21:00.219Z,10.63
2017-08-06T08:23:27.639Z,11.57
2017-08-06T08:25:55.039Z,13.90
2017-08-06T08:28:22.435Z,13.73
2017-08-06T08:30:49.848Z,13.70
2017-08-06T08:33:17.245Z,13.10
2017-08-06T08:35:44.646Z,13.50
2017-08-06T08:38:12.048Z,13.00
2017-08-06T08:40:39.679Z,13.07
2017-08-06T08:43:07.092Z,12.30
2017-08-06T08:45:34.486Z,11.43
2017-08-06T08:48:01.899Z,11.70
2017-08-06T08:50:29.287Z,10.43
2017-08-06T08:52:56.711Z,11.73
2017-08-06T08:55:24.115Z,11.17
2017-08-06T08:57:51.514Z,11.33
2017-08-06T09:00:18.924Z,10.83
2017-08-06T09:02:46.321Z,10.90
2017-08-06T09:05:13.727Z,10.63
2017-08-06T09:07:41.127Z,10.90
2017-08-06T09:10:08.530Z,12.30
2017-08-06T09:12:35.940Z,12.40
2017-08-06T09:15:03.343Z,11.00
2017-08-06T09:17:30.747Z,10.63
2017-08-06T09:19:58.144Z,10.00
2017-08-06T09:22:25.551Z,12.47
2017-08-06T09:24:52.957Z,11.23
2017-08-06T09:27:20.355Z,11.60
2017-08-06T09:29:47.756Z,10.40
2017-08-06T09:32:15.160Z,10.13
2017-08-06T09:34:42.567Z,11.30
2017-08-06T09:37:09.966Z,11.77
2017-08-06T09:39:37.363Z,10.47
2017-08-06T09:42:04.755Z,9.70
2017-08-06T09:44:32.163Z,9.00
2017-08-06T09:46:59.564Z,10.63
2017-08-06T09:49:26.955Z,9.77
2017-08-06T09:51:54.378Z,11.10
2017-08-06T09:54:21.753Z,10.03
2017-08-06T09:56:49.155Z,11.03
2017-08-06T09:59:16.555Z,9.73
2017-08-06T10:01:43.953Z,9.93
2017-08-06T10:04:11.347Z,11.10
2017-08-06T10:06:38.752Z,10.97
2017-08-06T10:09:06.147Z,10.30
2017-08-06T10:11:33.551Z,9.57
2017-08-06T10:14:00.966Z,11.43
2017-08-06T10:16:28.362Z,11.10
2017-08-06T10:18:55.769Z,10.40
2017-08-06T10:21:23.166Z,10.33
2017-08-06T10:23:50.583Z,10.40
2017-08-06T10:26:17.979Z,10.00
2017-08-06T10:28:45.379Z,10.73
2017-08-06T10:31:12.782Z,10.07
2017-08-06T10:33:40.191Z,11.30
2017-08-06T10:36:07.598Z,10.50
2017-08-06T10:38:35.007Z,10.67
2017-08-06T10:41:02.396Z,12.37
2017-08-06T10:43:29.814Z,11.90
2017-08-06T10:45:57.223Z,11.67
2017-08-06T10:48:24.633Z,11.90
2017-08-06T10:50:52.032Z,15.10
2017-08-06T10:53:19.453Z,13.73
2017-08-06T10:55:46.843Z,11.63
2017-08-06T10:58:14.247Z,11.90
2017-08-06T11:00:41.650Z,11.73
2017-08-06T11:03:09.053Z,12.70
2017-08-06T11:05:36.456Z,12.10
2017-08-06T11:08:03.851Z,11.10
2017-08-06T11:10:31.268Z,12.33
2017-08-06T11:12:58.664Z,12.17
2017-08-06T11:15:26.069Z,11.90
2017-08-06T11:17:53.477Z,12.07
2017-08-06T11:20:20.876Z,11.00
2017-08-06T11:22:48.290Z,12.10
2017-08-06T11:25:15.691Z,12.23
2017-08-06T11:27:43.091Z,12.43
2017-08-06T11:30:10.495Z,13.40
2017-08-06T11:32:37.900Z,12.90
2017-08-06T11:35:05.310Z,13.40
2017-08-06T11:37:32.708Z,12.57
2017-08-06T11:40:00.115Z,12.77
2017-08-06T11:42:27.523Z,11.80
2017-08-06T11:44:54.927Z,11.60
2017-08-06T11:47:22.331Z,13.13
2017-08-06T11:49:49.739Z,11.80
2017-08-06T11:52:17.151Z,11.73
2017-08-06T11:54:44.552Z,11.40
2017-08-06T11:57:11.947Z,12.17
2017-08-06T11:59:39.351Z,11.90
2017-08-06T12:02:06.748Z,12.00
2017-08-06T12:04:34.159Z,12.50
2017-08-06T12:07:01.561Z,11.80
2017-08-06T12:09:28.966Z,12.10
2017-08-06T12:11:56.363Z,12.00
2017-08-06T12:14:23.774Z,11.50
2017-08-06T12:16:52.008Z,12.73
2017-08-06T12:19:19.411Z,13.03
2017-08-06T12:21:46.809Z,13.60
2017-08-06T12:24:14.216Z,12.47
2017-08-06T12:26:41.619Z,13.50
2017-08-06T12:29:09.028Z,12.70
2017-08-06T12:31:36.436Z,14.53
2017-08-06T12:34:03.839Z,12.03
2017-08-06T12:36:31.242Z,12.10
2017-08-06T12:38:58.654Z,11.40
2017-08-06T12:41:26.046Z,11.13
2017-08-06T12:43:53.459Z,11.50
2017-08-06T12:46:20.855Z,11.67
2017-08-06T12:48:48.272Z,11.53
2017-08-06T12:51:15.671Z,11.80
2017-08-06T12:53:43.071Z,12.03
2017-08-06T12:56:10.480Z,12.77
2017-08-06T12:58:37.880Z,12.53
2017-08-06T13:01:05.284Z,11.80
2017-08-06T13:03:32.702Z,12.10
2017-08-06T13:06:00.094Z,11.93
2017-08-06T13:08:27.503Z,12.00
2017-08-06T13:10:54.903Z,11.43
2017-08-06T13:13:22.314Z,12.20
2017-08-06T13:15:49.714Z,11.23
2017-08-06T13:18:17.116Z,10.30
2017-08-06T13:20:44.529Z,10.00
2017-08-06T13:23:11.940Z,10.30
2017-08-06T13:25:39.335Z,10.53
2017-08-06T13:28:06.751Z,11.47
2017-08-06T13:30:34.146Z,11.67
2017-08-06T13:33:01.556Z,10.93
2017-08-06T13:35:29.583Z,11.23
2017-08-06T13:37:56.976Z,11.67
2017-08-06T13:40:24.411Z,11.17
2017-08-06T13:42:51.808Z,11.07
2017-08-06T13:45:19.234Z,10.70
2017-08-06T13:47:46.631Z,11.03
2017-08-06T13:50:14.032Z,11.03
2017-08-06T13:52:41.442Z,10.80
2017-08-06T13:55:08.848Z,11.13
2017-08-06T13:57:36.254Z,11.50
2017-08-06T14:00:03.651Z,11.50
2017-08-06T14:02:31.056Z,10.40
2017-08-06T14:04:58.461Z,10.83
2017-08-06T14:07:25.868Z,10.90
2017-08-06T14:09:53.262Z,11.20
2017-08-06T14:12:20.663Z,10.17
2017-08-06T14:14:48.060Z,10.47
2017-08-06T14:17:15.500Z,11.57
2017-08-06T14:19:42.896Z,10.73
2017-08-06T14:22:10.296Z,10.03
2017-08-06T14:24:37.717Z,10.50
2017-08-06T14:27:05.120Z,10.43
2017-08-06T14:29:32.523Z,10.40
2017-08-06T14:31:59.949Z,10.80
2017-08-06T14:34:27.339Z,11.13
2017-08-06T14:36:54.743Z,11.90
2017-08-06T14:39:22.164Z,11.50
2017-08-06T14:41:49.568Z,11.50
2017-08-06T14:44:16.956Z,10.03
2017-08-06T14:46:44.392Z,11.87
2017-08-06T14:49:11.792Z,11.20
2017-08-06T14:51:39.196Z,11.00
2017-08-06T14:54:06.608Z,11.33
2017-08-06T14:56:34.000Z,11.03
2017-08-06T14:59:01.416Z,9.80
2017-08-06T15:01:28.844Z,12.33
2017-08-06T15:03:56.231Z,10.77
2017-08-06T15:06:23.647Z,14.30
2017-08-06T15:08:51.047Z,11.20
2017-08-06T15:11:18.464Z,11.30
2017-08-06T15:13:45.883Z,10.90
2017-08-06T15:16:13.293Z,13.10
2017-08-06T15:18:40.727Z,11.40
2017-08-06T15:21:08.122Z,11.20
2017-08-06T15:23:35.550Z,11.97
2017-08-06T15:26:02.959Z,10.13
2017-08-06T15:28:30.395Z,10.67
2017-08-06T15:30:57.806Z,11.90
2017-08-06T15:33:25.227Z,11.33
2017-08-06T15:35:52.622Z,10.63
2017-08-06T15:38:20.053Z,10.10
2017-08-06T15:40:47.443Z,11.70
2017-08-06T15:43:14.855Z,10.17
2017-08-06T15:45:42.263Z,11.23
2017-08-06T15:48:09.658Z,9.90
2017-08-06T15:50:37.107Z,11.03
2017-08-06T15:53:04.512Z,10.40
2017-08-06T15:55:31.915Z,9.83
2017-08-06T15:57:59.319Z,10.93
2017-08-06T16:00:26.727Z,10.63
2017-08-06T16:02:54.128Z,10.40
2017-08-06T16:05:21.523Z,9.97
2017-08-06T16:07:48.932Z,11.63
2017-08-06T16:10:16.333Z,10.70
2017-08-06T16:12:43.738Z,10.90
2017-08-06T16:15:11.143Z,11.60
2017-08-06T16:17:38.567Z,11.13
2017-08-06T16:20:05.964Z,10.60
2017-08-06T16:22:33.390Z,11.17
2017-08-06T16:25:01.305Z,11.00
2017-08-06T16:27:28.726Z,11.07
2017-08-06T16:29:56.140Z,11.10
2017-08-06T16:32:23.566Z,10.93
2017-08-06T16:34:50.991Z,11.60
2017-08-06T16:37:18.400Z,10.40
2017-08-06T16:39:45.804Z,11.03
2017-08-06T16:42:13.271Z,10.73
2017-08-06T16:44:40.668Z,10.30
2017-08-06T16:47:08.071Z,10.03
2017-08-06T16:49:35.472Z,10.70
2017-08-06T16:52:02.915Z,13.43
2017-08-06T16:54:30.314Z,12.40
2017-08-06T16:56:57.743Z,11.90
2017-08-06T16:59:25.159Z,12.67
2017-08-06T17:01:52.590Z,11.80
2017-08-06T17:04:19.993Z,12.50
2017-08-06T17:06:47.402Z,11.50
2017-08-06T17:09:14.841Z,12.17
2017-08-06T17:11:42.232Z,12.20
2017-08-06T17:14:09.639Z,11.37
2017-08-06T17:16:37.056Z,11.90
2017-08-06T17:19:04.458Z,11.43
2017-08-06T17:21:31.846Z,11.70
2017-08-06T17:23:59.278Z,11.33
2017-08-06T17:26:26.696Z,11.00
2017-08-06T17:28:54.137Z,11.10
2017-08-06T17:31:21.540Z,10.60
2017-08-06T17:33:48.972Z,11.40
2017-08-06T17:36:16.442Z,11.53
2017-08-06T17:38:43.831Z,10.63
2017-08-06T17:41:11.232Z,10.30
2017-08-06T17:43:38.627Z,10.17
2017-08-06T17:46:06.032Z,11.97
2017-08-06T17:48:33.448Z,11.03
2017-08-06T17:51:00.840Z,11.70
2017-08-06T17:53:28.235Z,11.00
2017-08-06T17:55:55.643Z,10.60
2017-08-06T17:58:23.034Z,10.03
2017-08-06T18:00:50.436Z,10.37
2017-08-06T18:03:17.834Z,10.60
2017-08-06T18:05:45.234Z,10.43
2017-08-06T18:08:12.632Z,11.50
2017-08-06T18:10:40.047Z,11.20
2017-08-06T18:13:07.443Z,11.20
2017-08-06T18:15:34.840Z,10.23
2017-08-06T18:18:02.243Z,10.30
2017-08-06T18:20:29.639Z,10.50
2017-08-06T18:22:57.053Z,10.17
2017-08-06T18:25:24.457Z,10.60
2017-08-06T18:27:51.863Z,11.47
2017-08-06T18:30:19.255Z,11.30
2017-08-06T18:32:46.659Z,12.20
2017-08-06T18:35:14.058Z,10.90
2017-08-06T18:37:41.468Z,11.87
2017-08-06T18:40:08.867Z,11.43
2017-08-06T18:42:36.275Z,10.70
2017-08-06T18:45:03.682Z,11.77
2017-08-06T18:47:31.096Z,11.43
2017-08-06T18:49:58.492Z,11.60
2017-08-06T18:52:25.895Z,12.23
2017-08-06T18:54:53.298Z,12.10
2017-08-06T18:57:20.711Z,11.47
2017-08-06T18:59:48.111Z,11.97
2017-08-06T19:02:15.511Z,11.33
2017-08-06T19:04:42.916Z,11.80
2017-08-06T19:07:10.319Z,11.10
2017-08-06T19:09:37.724Z,11.53
2017-08-06T19:12:05.144Z,10.57
2017-08-06T19:14:32.548Z,12.17
2017-08-06T19:16:59.962Z,11.80
2017-08-06T19:19:27.363Z,11.93
2017-08-06T19:21:54.787Z,12.10
2017-08-06T19:24:22.191Z,11.13
2017-08-06T19:26:49.592Z,12.70
2017-08-06T19:29:16.995Z,11.50
2017-08-06T19:31:44.407Z,12.10
2017-08-06T19:34:11.808Z,11.50
2017-08-06T19:36:39.216Z,12.10
2017-08-06T19:39:06.616Z,11.90
2017-08-06T19:41:34.026Z,11.27
2017-08-06T19:44:01.423Z,12.43
2017-08-06T19:46:28.828Z,11.50
2017-08-06T19:48:56.239Z,11.93
2017-08-06T19:51:23.644Z,11.07
2017-08-06T19:53:51.076Z,11.87
2017-08-06T19:56:18.481Z,11.87
2017-08-06T19:58:45.879Z,11.87
2017-08-06T20:01:13.284Z,11.10
2017-08-06T20:03:40.691Z,11.60
2017-08-06T20:06:08.098Z,11.60
2017-08-06T20:08:35.493Z,12.30
2017-08-06T20:11:02.905Z,11.70
2017-08-06T20:13:30.307Z,11.60
2017-08-06T20:15:57.719Z,11.20
2017-08-06T20:18:25.115Z,10.80
2017-08-06T20:20:52.527Z,11.80
2017-08-06T20:23:19.923Z,12.00
2017-08-06T20:25:47.334Z,11.60
2017-08-06T20:28:14.729Z,11.77
2017-08-06T20:30:42.134Z,12.10
2017-08-06T20:33:09.543Z,11.47
2017-08-06T20:35:36.956Z,12.20
2017-08-06T20:38:04.356Z,12.73
2017-08-06T20:40:31.767Z,12.90
2017-08-06T20:42:59.159Z,11.90
2017-08-06T20:45:26.571Z,12.63
2017-08-06T20:47:53.979Z,11.33
2017-08-06T20:50:21.401Z,11.30
2017-08-06T20:52:48.790Z,12.10
2017-08-06T20:55:16.196Z,11.83
2017-08-06T20:57:43.611Z,12.47
2017-08-06T21:00:11.012Z,12.30
2017-08-06T21:02:38.408Z,12.63
2017-08-06T21:05:05.812Z,12.00
2017-08-06T21:07:33.211Z,11.50
2017-08-06T21:10:00.620Z,11.60
2017-08-06T21:12:28.015Z,11.30
2017-08-06T21:14:55.429Z,12.97
2017-08-06T21:17:22.822Z,12.23
2017-08-06T21:19:50.221Z,12.60
2017-08-06T21:22:17.628Z,12.13
2017-08-06T21:24:45.031Z,12.70
2017-08-06T21:27:12.451Z,11.63
2017-08-06T21:29:39.857Z,12.47
2017-08-06T21:32:07.260Z,12.40
2017-08-06T21:34:34.668Z,12.00
2017-08-06T21:37:02.062Z,12.63
2017-08-06T21:39:29.471Z,12.27
2017-08-06T21:41:56.871Z,11.83
2017-08-06T21:44:24.283Z,12.20
2017-08-06T21:46:51.680Z,11.07
2017-08-06T21:49:19.095Z,11.87
2017-08-06T21:51:46.496Z,12.07
2017-08-06T21:54:13.903Z,11.80
2017-08-06T21:56:41.303Z,12.03
2017-08-06T21:59:08.703Z,12.00
2017-08-06T22:01:36.119Z,12.20
2017-08-06T22:04:03.511Z,11.83
2017-08-06T22:06:30.923Z,11.63
2017-08-06T22:08:58.332Z,11.47
2017-08-06T22:11:25.747Z,12.23
2017-08-06T22:13:53.144Z,12.13
2017-08-06T22:16:20.537Z,11.90
2017-08-06T22:18:47.951Z,12.33
2017-08-06T22:21:15.347Z,11.90
2017-08-06T22:23:42.770Z,11.40
2017-08-06T22:26:10.179Z,11.60
2017-08-06T22:28:37.574Z,11.77
2017-08-06T22:31:04.978Z,11.83
2017-08-06T22:33:32.387Z,11.23
2017-08-06T22:35:59.786Z,10.60
2017-08-06T22:38:27.191Z,11.93
2017-08-06T22:40:54.597Z,11.10
2017-08-06T22:43:21.994Z,11.87
2017-08-06T22:45:49.401Z,11.80
2017-08-06T22:48:16.797Z,11.50
2017-08-06T22:50:44.191Z,11.47
2017-08-06T22:53:11.595Z,11.50
2017-08-06T22:55:38.990Z,11.83
2017-08-06T22:58:06.402Z,11.80
2017-08-06T23:00:33.813Z,12.53
2017-08-06T23:03:01.211Z,12.37
2017-08-06T23:05:28.627Z,11.10
2017-08-06T23:07:56.028Z,11.47
2017-08-06T23:10:23.435Z,11.00
2017-08-06T23:12:50.835Z,12.37
2017-08-06T23:15:18.248Z,12.47
2017-08-06T23:17:45.642Z,11.27
2017-08-06T23:20:13.062Z,11.90
2017-08-06T23:22:40.468Z,12.83
2017-08-06T23:25:07.868Z,11.50
2017-08-06T23:27:35.272Z,11.90
2017-08-06T23:30:02.675Z,11.97
2017-08-06T23:32:30.091Z,12.40
2017-08-06T23:34:57.487Z,11.60
2017-08-06T23:37:24.883Z,11.77
2017-08-06T23:39:52.439Z,12.40
2017-08-06T23:42:19.836Z,11.90
2017-08-06T23:44:47.244Z,12.13
2017-08-06T23:47:14.648Z,11.90
2017-08-06T23:49:42.048Z,11.13
2017-08-06T23:52:09.456Z,11.13
2017-08-06T23:54:36.856Z,11.90
2017-08-06T23:57:04.271Z,11.77
2017-08-06T23:59:31.667Z,11.60
